Latest Weather Observations for Meekatharra

IDW60801

Issued at 2:05 pm WST Sunday 20 April 2014 (issued every 30 minutes, with the page automatically refreshed every 10 minutes)

About weather observations | Map of weather stations | Latest weather observations for WA | Other Formats
Station Details ID: 007045 Name: MEEKATHARRA AIRPORT Lat: -26.61 Lon: 118.54 Height: 517.0 m
Data from the previous 72 hours. | See also: Recent months at Meekatharra
Date/Time
WST
Temp
°C
App
Temp
°C
Dew
Point
Rel
Hum
%
Delta-T
°C
Wind Press
QNH
hPa
Press
MSL
hPa
Rain
since 9 am
mm
Dir
 
Spd
km/h
Gust
km/h
Spd
kts
Gust
kts
20/02:00pm 31.8 27.0 -0.1 13 15.8 W 15 24 8 13 1012.6 - 0.0
20/01:30pm 32.0 27.7 0.8 13 15.7 W 13 19 7 10 1012.8 - 0.0
20/01:00pm 31.0 26.4 -0.9 12 15.5 W 13 24 7 13 1013.2 - 0.0
20/12:30pm 31.9 27.8 0.1 13 15.8 SSW 11 20 6 11 1013.6 - 0.0
20/12:00pm 31.2 27.4 -0.9 12 15.6 E 9 28 5 15 1014.2 1011.5 0.0
20/11:30am 30.7 27.1 0.8 14 14.9 S 9 24 5 13 1014.7 - 0.0
20/11:00am 29.9 24.8 -2.1 12 15.1 SW 15 26 8 14 1015.1 - 0.0
20/10:30am 30.0 24.5 -2.3 12 15.2 SSW 17 22 9 12 1015.4 - 0.0
20/10:00am 29.0 24.4 -1.3 14 14.4 SSW 13 22 7 12 1015.4 - 0.0
20/09:30am 28.4 24.4 0.6 16 13.6 S 11 17 6 9 1015.7 - 0.0
20/09:00am 27.0 23.0 0.6 18 12.8 S 11 15 6 8 1015.7 1013.0 0.0
20/08:30am 26.2 23.7 3.6 23 11.5 SSW 6 7 3 4 1015.7 - 0.0
20/08:00am 23.0 20.0 0.7 23 10.5 SSW 6 9 3 5 1015.5 - 0.0
20/07:30am 20.4 18.8 2.4 30 8.6 CALM 0 0 0 0 1015.5 - 0.0
20/07:00am 17.1 14.9 5.1 45 5.9 SSW 6 7 3 4 1015.1 - 0.0
20/06:30am 15.6 13.1 1.4 38 6.4 SSW 4 6 2 3 1015.0 - 0.0
20/06:00am 16.3 13.4 2.5 39 6.4 SSW 7 9 4 5 1014.8 1012.1 0.0
20/05:30am 17.6 14.0 0.5 31 7.7 SSW 9 13 5 7 1014.7 - 0.0
20/05:00am 17.1 14.0 1.6 35 7.1 SSW 7 9 4 5 1014.6 - 0.0
20/04:30am 18.8 15.3 1.2 30 8.1 SSW 9 11 5 6 1014.6 - 0.0
20/04:00am 19.5 15.2 -1.4 24 9.2 SSW 11 13 6 7 1014.4 - 0.0
20/03:30am 20.2 15.5 -1.5 23 9.6 SSW 13 15 7 8 1014.2 - 0.0
20/03:00am 20.8 15.5 -3.2 19 10.3 SSW 15 19 8 10 1014.2 1011.5 0.0
20/02:30am 21.1 15.8 -3.8 18 10.6 SSW 15 17 8 9 1014.1 - 0.0
20/02:00am 22.1 16.7 -4.2 17 11.2 S 15 17 8 9 1014.2 - 0.0
20/01:30am 23.6 18.6 -4.7 15 12.1 SSW 13 19 7 10 1014.6 - 0.0
20/01:00am 23.5 18.5 -4.4 15 12.0 WSW 13 17 7 9 1014.6 - 0.0
20/12:30am 22.8 18.5 -1.6 19 11.0 WNW 11 13 6 7 1014.5 - 0.0
20/12:00am 21.4 17.3 -3.1 19 10.6 NNE 9 19 5 10 1014.2 1011.5 0.0
 
Date/Time
WST
Temp
°C
App
Temp
°C
Dew
Point
Rel
Hum
%
Delta-T
°C
Wind Press
QNH
hPa
Press
MSL
hPa
Rain
since 9 am
mm
Dir
 
Spd
km/h
Gust
km/h
Spd
kts
Gust
kts
19/11:30pm 20.3 17.0 0.2 26 9.2 NNE 7 11 4 6 1014.1 - 0.0
19/11:00pm 22.2 18.1 -0.5 22 10.4 NNE 11 13 6 7 1014.2 - 0.0
19/10:30pm 22.0 18.3 -0.1 23 10.2 NE 9 9 5 5 1014.5 - 0.0
19/10:00pm 22.3 18.4 1.2 24 10.0 NNE 11 13 6 7 1014.6 - 0.0
19/09:30pm 23.6 19.4 -0.7 20 11.2 ENE 11 13 6 7 1014.8 - 0.0
19/09:00pm 24.2 20.3 -1.8 18 11.8 ENE 9 11 5 6 1014.9 1012.2 0.0
19/08:30pm 24.2 20.4 -0.5 19 11.5 WNW 9 11 5 6 1014.9 - 0.0
19/08:00pm 24.4 20.8 0.3 20 11.4 WNW 9 11 5 6 1014.8 - 0.0
19/07:30pm 25.5 22.0 1.1 20 11.8 WNW 9 9 5 5 1014.6 - 0.0
19/07:00pm 25.9 23.0 2.7 22 11.6 WNW 7 9 4 5 1014.6 - 0.0
19/06:30pm 27.8 25.5 5.9 25 11.7 WNW 7 9 4 5 1014.4 - 0.0
19/06:00pm 30.1 27.6 4.6 20 13.5 WNW 7 9 4 5 1014.1 1011.3 0.0
19/05:30pm 32.2 29.7 3.5 16 15.1 NW 6 17 3 9 1013.9 - 0.0
19/05:00pm 32.7 28.1 -3.9 9 17.1 NNW 11 20 6 11 1013.8 - 0.0
19/04:30pm 33.3 28.8 -3.6 9 17.4 NNW 11 17 6 9 1013.8 - 0.0
19/04:00pm 32.9 28.9 -2.2 10 16.9 N 9 15 5 8 1013.8 - 0.0
19/03:30pm 33.5 28.8 -4.6 8 17.7 E 11 20 6 11 1014.1 - 0.0
19/03:00pm 33.5 30.4 0.3 12 16.7 NNW 6 15 3 8 1014.2 1011.5 0.0
19/02:30pm 34.0 27.8 -4.6 8 18.0 NW 19 24 10 13 1014.4 - 0.0
19/02:00pm 33.1 29.4 -0.3 12 16.6 NNW 9 20 5 11 1014.6 - 0.0
19/01:30pm 33.0 27.7 -3.5 9 17.2 NNW 15 28 8 15 1014.8 - 0.0
19/01:00pm 33.5 28.8 -4.7 8 17.7 NNW 11 30 6 16 1015.1 - 0.0
19/12:30pm 32.8 27.9 -3.1 10 17.0 NW 13 26 7 14 1015.8 - 0.0
19/12:00pm 32.5 27.7 -2.5 10 16.7 NNW 13 24 7 13 1016.6 1013.9 0.0
19/11:30am 31.8 25.5 -3.6 10 16.5 N 20 32 11 17 1017.1 - 0.0
19/11:00am 31.2 24.5 -3.9 10 16.2 N 22 30 12 16 1017.4 - 0.0
19/10:30am 30.8 24.2 -3.6 10 15.9 N 22 33 12 18 1017.6 - 0.0
19/10:00am 30.1 23.9 -3.1 11 15.4 N 20 28 11 15 1018.0 - 0.0
19/09:30am 28.9 23.0 -2.1 13 14.5 N 19 24 10 13 1018.2 - 0.0
19/09:00am 27.5 21.3 -3.1 13 13.9 NNE 20 28 11 15 1018.4 1015.7 0.0
19/08:30am 26.0 20.5 -2.3 15 12.9 N 17 22 9 12 1018.3 - 0.0
19/08:00am 23.2 17.7 -2.0 18 11.3 N 17 24 9 13 1018.0 - 0.0
19/07:30am 20.8 16.2 -1.1 23 9.8 NNE 13 17 7 9 1017.8 - 0.0
19/07:00am 18.6 13.9 -1.7 25 8.8 NNE 13 17 7 9 1017.7 - 0.0
19/06:30am 17.4 12.7 -1.7 27 8.2 NNE 13 17 7 9 1017.6 - 0.0
19/06:00am 17.7 13.0 -1.5 27 8.3 NNE 13 15 7 8 1017.4 1014.7 0.0
19/05:30am 17.8 13.5 -1.7 26 8.4 N 11 15 6 8 1017.3 - 0.0
19/05:00am 18.5 13.4 -2.3 24 8.9 NNE 15 17 8 9 1017.3 - 0.0
19/04:30am 18.1 13.8 -1.9 25 8.6 N 11 15 6 8 1017.3 - 0.0
19/04:00am 18.6 14.2 -2.1 24 8.9 N 11 13 6 7 1017.5 - 0.0
19/03:30am 19.4 15.0 -2.5 22 9.4 NNE 11 17 6 9 1017.4 - 0.0
19/03:00am 19.7 15.3 -2.7 22 9.6 N 11 13 6 7 1017.5 1014.8 0.0
19/02:30am 20.4 16.1 -1.6 22 9.7 NNE 11 13 6 7 1017.6 - 0.0
19/02:00am 18.7 14.6 0.0 28 8.4 NE 11 11 6 6 1017.8 - 0.0
19/01:30am 19.7 16.5 0.8 28 8.7 ENE 7 11 4 6 1017.9 - 0.0
19/01:00am 19.9 15.3 -1.4 23 9.4 NE 13 15 7 8 1018.0 - 0.0
19/12:30am 20.2 16.0 -1.2 23 9.5 NNE 11 13 6 7 1018.2 - 0.0
19/12:00am 19.6 16.7 2.6 32 8.1 NNE 7 9 4 5 1018.2 1015.5 0.0
 
Date/Time
WST
Temp
°C
App
Temp
°C
Dew
Point
Rel
Hum
%
Delta-T
°C
Wind Press
QNH
hPa
Press
MSL
hPa
Rain
since 9 am
mm
Dir
 
Spd
km/h
Gust
km/h
Spd
kts
Gust
kts
18/11:30pm 20.7 17.4 2.2 29 8.8 NNE 9 13 5 7 1018.4 - 0.0
18/11:00pm 21.8 17.0 -2.3 20 10.6 NE 13 17 7 9 1018.6 - 0.0
18/10:30pm 20.7 17.0 -0.2 24 9.5 E 9 15 5 8 1018.8 - 0.0
18/10:00pm 20.9 18.4 3.5 31 8.5 E 6 11 3 6 1019.0 - 0.0
18/09:30pm 22.4 19.7 0.6 23 10.2 SSE 4 6 2 3 1019.0 - 0.0
18/09:00pm 23.4 19.6 -0.4 20 11.0 SSE 9 11 5 6 1019.1 1016.4 0.0
18/08:30pm 23.8 22.0 1.2 22 10.8 CALM 0 6 0 3 1018.8 - 0.0
18/08:00pm 26.5 23.3 3.1 22 11.8 NW 9 9 5 5 1018.7 - 0.0
18/07:30pm 26.5 23.9 4.1 23 11.5 WNW 7 9 4 5 1018.5 - 0.0
18/07:00pm 26.9 24.5 5.1 24 11.4 WNW 7 9 4 5 1018.3 - 0.0
18/06:30pm 27.9 25.5 4.5 22 12.2 WNW 6 9 3 5 1018.0 - 0.0
18/06:00pm 29.7 27.6 5.7 22 12.9 WNW 6 7 3 4 1017.8 1015.2 0.0
18/05:30pm 31.7 26.8 -3.4 10 16.4 N 13 17 7 9 1017.5 - 0.0
18/05:00pm 32.2 28.6 -1.9 11 16.4 E 7 13 4 7 1017.2 - 0.0
18/04:30pm 32.0 28.7 -0.2 12 15.9 N 7 13 4 7 1017.1 - 0.0
18/04:00pm 32.4 28.7 0.0 12 16.1 NNE 9 15 5 8 1017.2 - 0.0
18/03:30pm 32.9 28.0 -3.4 9 17.1 NNW 13 20 7 11 1017.2 - 0.0
18/03:00pm 32.2 27.9 -1.9 11 16.4 SSE 11 22 6 12 1017.2 1014.5 0.0
18/02:30pm 32.2 27.2 -4.0 9 16.8 NE 13 19 7 10 1017.3 - 0.0
18/02:00pm 32.7 27.5 -2.5 10 16.8 N 15 20 8 11 1017.5 - 0.0
18/01:30pm 32.3 26.7 -2.7 10 16.6 NNE 17 26 9 14 1017.8 - 0.0
18/01:00pm 31.6 26.9 -1.8 11 16.0 ENE 13 22 7 12 1018.2 - 0.0
18/12:30pm 31.4 26.1 -3.4 10 16.2 ENE 15 26 8 14 1018.7 - 0.0
18/12:00pm 32.0 26.9 -2.1 11 16.3 E 15 24 8 13 1019.3 1016.7 0.0
18/11:30am 30.8 23.7 -4.2 10 16.0 NNE 24 33 13 18 1019.6 - 0.0
18/11:00am 30.9 24.7 -2.8 11 15.8 NNE 20 30 11 16 1019.9 - 0.0
18/10:30am 30.6 24.5 -2.2 12 15.5 N 20 30 11 16 1020.3 - 0.0
18/10:00am 29.6 23.5 -2.2 12 14.9 NE 20 30 11 16 1020.5 - 0.0
18/09:30am 28.4 21.5 -2.6 13 14.3 NNE 24 35 13 19 1020.6 - 0.0
18/09:00am 27.8 21.1 -3.8 12 14.2 NE 22 33 12 18 1020.6 1017.9 0.0
18/08:30am 26.6 21.0 -3.2 14 13.4 NE 17 26 9 14 1020.8 - 0.0
18/08:00am 24.3 19.2 -1.7 18 11.8 NE 15 20 8 11 1020.7 - 0.0
18/07:30am 20.9 16.7 -0.6 23 9.7 NE 11 17 6 9 1020.4 - 0.0
18/07:00am 18.1 14.9 1.0 31 7.8 ENE 7 7 4 4 1020.2 - 0.0
18/06:30am 17.2 13.5 0.1 31 7.6 ENE 9 11 5 6 1019.9 - 0.0
18/06:00am 17.7 13.7 0.2 30 7.8 ENE 11 13 6 7 1019.9 1017.3 0.0
18/05:30am 18.6 14.5 0.1 28 8.3 NE 11 15 6 8 1019.8 - 0.0
18/05:00am 19.1 15.4 0.0 27 8.6 ENE 9 15 5 8 1019.8 - 0.0
18/04:30am 19.1 15.5 0.3 28 8.5 ENE 9 13 5 7 1019.8 - 0.0
18/04:00am 20.1 15.5 -0.7 24 9.3 E 13 17 7 9 1019.6 - 0.0
18/03:30am 20.2 15.2 -1.2 23 9.5 E 15 20 8 11 1019.5 - 0.0
18/03:00am 19.7 14.7 -1.5 24 9.3 E 15 20 8 11 1019.6 1017.0 0.0
18/02:30am 19.6 15.5 -0.5 26 9.0 ENE 11 15 6 8 1019.7 - 0.0
18/02:00am 20.8 15.6 -2.8 20 10.2 E 15 20 8 11 1019.7 - 0.0
18/01:30am 19.5 14.7 -2.7 22 9.5 E 13 15 7 8 1019.9 - 0.0
18/01:00am 19.7 14.7 -4.0 20 9.9 E 13 15 7 8 1020.0 - 0.0
18/12:30am 20.7 15.3 -4.9 17 10.6 E 15 19 8 10 1020.2 - 0.0
18/12:00am 19.8 15.9 -1.7 23 9.4 E 9 11 5 6 1020.0 1017.4 0.0
 
Date/Time
WST
Temp
°C
App
Temp
°C
Dew
Point
Rel
Hum
%
Delta-T
°C
Wind Press
QNH
hPa
Press
MSL
hPa
Rain
since 9 am
mm
Dir
 
Spd
km/h
Gust
km/h
Spd
kts
Gust
kts
17/11:30pm 20.3 15.9 -2.3 21 9.8 E 11 13 6 7 1020.2 - 0.0
17/11:00pm 21.6 16.5 -5.1 16 11.1 E 13 15 7 8 1020.3 - 0.0
17/10:30pm 21.5 16.4 -5.4 16 11.1 E 13 15 7 8 1020.4 - 0.0
17/10:00pm 22.1 17.0 -5.3 15 11.4 E 13 15 7 8 1020.4 - 0.0
17/09:30pm 22.6 17.5 -5.0 15 11.6 ESE 13 15 7 8 1020.4 - 0.0
17/09:00pm 24.0 18.8 -6.4 13 12.6 ESE 13 19 7 10 1020.4 1017.7 0.0
17/08:30pm 25.1 19.4 -7.0 11 13.3 ESE 15 17 8 9 1020.2 - 0.0
17/08:00pm 25.5 20.5 -4.2 14 13.0 SE 13 15 7 8 1019.9 - 0.0
17/07:30pm 25.5 21.1 -2.7 15 12.7 SSE 11 13 6 7 1019.6 - 0.0
17/07:00pm 25.5 21.5 0.7 19 11.9 SSE 11 11 6 6 1019.3 - 0.0
17/06:30pm 27.2 23.2 -2.0 14 13.5 SSE 9 11 5 6 1019.0 - 0.0
17/06:00pm 28.9 24.4 -3.6 12 14.8 SSE 11 13 6 7 1018.7 1016.0 0.0
17/05:30pm 30.3 24.2 -7.7 8 16.3 SSE 17 22 9 12 1018.5 - 0.0
17/05:00pm 31.0 26.6 -5.8 9 16.4 S 9 17 5 9 1018.3 - 0.0
17/04:30pm 31.4 27.3 -3.3 10 16.2 E 9 15 5 8 1018.2 - 0.0
17/04:00pm 32.0 27.5 -7.1 7 17.2 ESE 9 17 5 9 1018.0 - 0.0
17/03:30pm 31.9 26.5 -9.0 6 17.4 SSE 13 20 7 11 1018.0 - 0.0
17/03:00pm 31.6 27.2 -5.5 9 16.7 SSW 9 17 5 9 1018.2 1015.5 0.0
17/02:30pm 31.5 27.6 -4.7 9 16.5 E 7 13 4 7 1018.3 - 0.0

Other Formats:

Comma delimited format used in spreadsheet applications
http://www.bom.gov.au/fwo/IDW60801/IDW60801.94430.axf

JavaScript Object Notation format (JSON) in row-major order
http://www.bom.gov.au/fwo/IDW60801/IDW60801.94430.json